Thunder radar more information blitzortung!


Radar de pluja more information rain snow radar


Visita la nostra xarxa de llocs de meteo:

Template documentation
and downloads

And another site



Wind From: 11-12-2017 11:00 Until: 14:59 warning for: Wind Level: Yellow info button

Pagina Historial Weather Underground text

Diari Resum May 19, 2017 Unitats:  Tant    Imperial   Mètric
« Previous Dia
SegĂźent Dia »
Diari Setmana Mensual Anual Personalitzada
  Maxima: Minima: Media:
Temperatura: 73.8 °F /  23.2 °C 49.1 °F /  9.5 °C 64 °F /  17.8 °C
Punt de rosada: 49.3 °F /  9.6 °C 33.4 °F /  0.8 °C 43.2 °F /  6.2 °C
Humitat: 75 % 28 % 49 %
Wind Speed: 11.5 mph /  18.5 km/h - 4.7 mph /  7.6 km/h
RĂ fegues de vent: 11.5 mph /  18.5 km/h - -
Vent:- - South
Pression baro: 30.2 in /  1021.9 hPa 30 in /  1015.8 hPa -
Precipitacions: 0.05 in /  1.3 mm    
Historical Graphs
 
 
Dades de taula per May 19, 2017
Temps Temperatura Punt de rosada Pression baro Vent Wind Speed RĂ fegues de vent Humitat Rainfall Rate (Hourly)
00:00 50 °F /  10.0 °C 40.6 °F /  4.8 °C 30.1 in /  1017.8 hPa NNE 1 mph /  1.6 km/h 3 mph /  4.8 km/h 70 % 0 in /  0.0 mm
00:04 55.4 °F /  13.0 °C 45.3 °F /  7.4 °C 30 in /  1015.8 hPa SSW 4.6 mph /  7.4 km/h 4.6 mph /  7.4 km/h 69 % 0 in /  0.0 mm
00:10 49.6 °F /  9.8 °C 40.3 °F /  4.6 °C 30.1 in /  1017.8 hPa Calm   2 mph /  3.2 km/h 70 % 0 in /  0.0 mm
00:20 50 °F /  10.0 °C 40.6 °F /  4.8 °C 30.1 in /  1017.8 hPa NNE 1 mph /  1.6 km/h 2 mph /  3.2 km/h 70 % 0 in /  0.0 mm
00:30 49.8 °F /  9.9 °C 40.5 °F /  4.7 °C 30.1 in /  1017.8 hPa NE 1 mph /  1.6 km/h 2 mph /  3.2 km/h 70 % 0 in /  0.0 mm
00:40 49.8 °F /  9.9 °C 40.5 °F /  4.7 °C 30.1 in /  1017.8 hPa NE 1 mph /  1.6 km/h 3 mph /  4.8 km/h 70 % 0 in /  0.0 mm
00:50 49.6 °F /  9.8 °C 39.9 °F /  4.4 °C 30.1 in /  1017.8 hPa SW 1 mph /  1.6 km/h 4 mph /  6.4 km/h 69 % 0 in /  0.0 mm
01:00 49.3 °F /  9.6 °C 39.9 °F /  4.4 °C 30.1 in /  1017.8 hPa Calm   1 mph /  1.6 km/h 70 % 0 in /  0.0 mm
01:10 49.3 °F /  9.6 °C 39.9 °F /  4.4 °C 30.1 in /  1017.8 hPa Calm   1 mph /  1.6 km/h 70 % 0 in /  0.0 mm
01:20 49.1 °F /  9.5 °C 40.1 °F /  4.5 °C 30.1 in /  1017.8 hPa Calm   1 mph /  1.6 km/h 71 % 0 in /  0.0 mm
01:30 49.1 °F /  9.5 °C 39.7 °F /  4.3 °C 30.1 in /  1018.8 hPa NNE 1 mph /  1.6 km/h 2 mph /  3.2 km/h 70 % 0 in /  0.0 mm
01:40 49.5 °F /  9.7 °C 39.7 °F /  4.3 °C 30.1 in /  1018.8 hPa WNW 3 mph /  4.8 km/h 4 mph /  6.4 km/h 69 % 0 in /  0.0 mm
01:50 49.8 °F /  9.9 °C 40.5 °F /  4.7 °C 30.1 in /  1018.8 hPa West 1 mph /  1.6 km/h 3 mph /  4.8 km/h 70 % 0 in /  0.0 mm
02:00 50 °F /  10.0 °C 40.3 °F /  4.6 °C 30.1 in /  1018.8 hPa WSW 2 mph /  3.2 km/h 2 mph /  3.2 km/h 69 % 0 in /  0.0 mm
02:10 50.2 °F /  10.1 °C 40.5 °F /  4.7 °C 30.1 in /  1019.9 hPa West 2 mph /  3.2 km/h 3 mph /  4.8 km/h 69 % 0 in /  0.0 mm
02:20 50.4 °F /  10.2 °C 40.6 °F /  4.8 °C 30.1 in /  1019.9 hPa WSW 2 mph /  3.2 km/h 2 mph /  3.2 km/h 69 % 0 in /  0.0 mm
02:30 50.9 °F /  10.5 °C 41.2 °F /  5.1 °C 30.1 in /  1018.8 hPa WSW 1 mph /  1.6 km/h 3 mph /  4.8 km/h 69 % 0 in /  0.0 mm
02:40 51.8 °F /  11.0 °C 41.9 °F /  5.5 °C 30.1 in /  1019.9 hPa SW 1 mph /  1.6 km/h 3 mph /  4.8 km/h 69 % 0 in /  0.0 mm
02:50 51.8 °F /  11.0 °C 41.5 °F /  5.3 °C 30.1 in /  1019.9 hPa SW 2 mph /  3.2 km/h 4 mph /  6.4 km/h 68 % 0 in /  0.0 mm
03:00 52.3 °F /  11.3 °C 42.1 °F /  5.6 °C 30.1 in /  1019.9 hPa SW 2 mph /  3.2 km/h 3 mph /  4.8 km/h 68 % 0 in /  0.0 mm
03:10 52.9 °F /  11.6 °C 42.3 °F /  5.7 °C 30.1 in /  1019.9 hPa WSW 5 mph /  8.0 km/h 5 mph /  8.0 km/h 67 % 0 in /  0.0 mm
03:20 53.4 °F /  11.9 °C 42.6 °F /  5.9 °C 30.1 in /  1019.9 hPa WSW 2 mph /  3.2 km/h 7 mph /  11.3 km/h 67 % 0 in /  0.0 mm
03:30 53.2 °F /  11.8 °C 42.3 °F /  5.7 °C 30.1 in /  1019.9 hPa WSW 6 mph /  9.7 km/h 6 mph /  9.7 km/h 66 % 0 in /  0.0 mm
03:40 53.6 °F /  12.0 °C 42.4 °F /  5.8 °C 30.1 in /  1019.9 hPa WSW 3 mph /  4.8 km/h 6 mph /  9.7 km/h 66 % 0 in /  0.0 mm
03:50 54 °F /  12.2 °C 42.4 °F /  5.8 °C 30.1 in /  1019.9 hPa WSW 3 mph /  4.8 km/h 8 mph /  12.9 km/h 65 % 0 in /  0.0 mm
04:00 54.1 °F /  12.3 °C 42.6 °F /  5.9 °C 30.1 in /  1019.9 hPa WSW 3 mph /  4.8 km/h 7 mph /  11.3 km/h 65 % 0 in /  0.0 mm
04:10 55 °F /  12.8 °C 43.5 °F /  6.4 °C 30.1 in /  1019.9 hPa WSW 5 mph /  8.0 km/h 6 mph /  9.7 km/h 65 % 0 in /  0.0 mm
04:20 55.4 °F /  13.0 °C 43.3 °F /  6.3 °C 30.1 in /  1019.9 hPa WSW 6 mph /  9.7 km/h 6 mph /  9.7 km/h 64 % 0 in /  0.0 mm
04:30 56.3 °F /  13.5 °C 44.2 °F /  6.8 °C 30.1 in /  1019.9 hPa WSW 3 mph /  4.8 km/h 5 mph /  8.0 km/h 64 % 0 in /  0.0 mm
04:40 56.5 °F /  13.6 °C 44.4 °F /  6.9 °C 30.1 in /  1019.9 hPa WSW 6 mph /  9.7 km/h 6 mph /  9.7 km/h 64 % 0 in /  0.0 mm
04:50 56.8 °F /  13.8 °C 44.4 °F /  6.9 °C 30.1 in /  1019.9 hPa WSW 2 mph /  3.2 km/h 5 mph /  8.0 km/h 63 % 0 in /  0.0 mm
05:00 57.4 °F /  14.1 °C 44.4 °F /  6.9 °C 30.2 in /  1020.9 hPa WSW 3 mph /  4.8 km/h 6 mph /  9.7 km/h 62 % 0 in /  0.0 mm
05:10 57.9 °F /  14.4 °C 45 °F /  7.2 °C 30.1 in /  1019.9 hPa WSW 3 mph /  4.8 km/h 6 mph /  9.7 km/h 62 % 0 in /  0.0 mm
05:20 58.5 °F /  14.7 °C 45.1 °F /  7.3 °C 30.1 in /  1019.9 hPa WSW 5 mph /  8.0 km/h 6 mph /  9.7 km/h 61 % 0 in /  0.0 mm
05:30 59.4 °F /  15.2 °C 45.9 °F /  7.7 °C 30.2 in /  1020.9 hPa SW 2 mph /  3.2 km/h 4 mph /  6.4 km/h 61 % 0 in /  0.0 mm
10:38 60.1 °F /  15.6 °C 45.7 °F /  7.6 °C 30.2 in /  1020.9 hPa WSW 4.6 mph /  7.4 km/h 4.6 mph /  7.4 km/h 59 % 0 in /  0.0 mm
10:40 60.3 °F /  15.7 °C 45.9 °F /  7.7 °C 30.2 in /  1020.9 hPa West 5.8 mph /  9.3 km/h 5.8 mph /  9.3 km/h 59 % 0 in /  0.0 mm
10:45 60.6 °F /  15.9 °C 46.2 °F /  7.9 °C 30.2 in /  1020.9 hPa SW 4.6 mph /  7.4 km/h 4.6 mph /  7.4 km/h 59 % 0 in /  0.0 mm
10:50 61.5 °F /  16.4 °C 46.6 °F /  8.1 °C 30.2 in /  1020.9 hPa WNW 2.3 mph /  3.7 km/h 2.3 mph /  3.7 km/h 58 % 0 in /  0.0 mm
10:55 61.2 °F /  16.2 °C 45.3 °F /  7.4 °C 30.2 in /  1020.9 hPa WSW 5.8 mph /  9.3 km/h 5.8 mph /  9.3 km/h 56 % 0 in /  0.0 mm
11:00 61.5 °F /  16.4 °C 45.7 °F /  7.6 °C 30.2 in /  1020.9 hPa West 7.8 mph /  12.6 km/h 7.8 mph /  12.6 km/h 56 % 0 in /  0.0 mm
11:05 62.1 °F /  16.7 °C 46.2 °F /  7.9 °C 30.2 in /  1020.9 hPa WSW 3.5 mph /  5.6 km/h 3.5 mph /  5.6 km/h 56 % 0 in /  0.0 mm
11:10 61.3 °F /  16.3 °C 44.4 °F /  6.9 °C 30.2 in /  1020.9 hPa WSW 6.9 mph /  11.1 km/h 6.9 mph /  11.1 km/h 54 % 0 in /  0.0 mm
11:15 61.7 °F /  16.5 °C 45 °F /  7.2 °C 30.2 in /  1020.9 hPa NNW 5.8 mph /  9.3 km/h 5.8 mph /  9.3 km/h 54 % 0 in /  0.0 mm
11:20 61.9 °F /  16.6 °C 44.6 °F /  7.0 °C 30.2 in /  1020.9 hPa West 5.8 mph /  9.3 km/h 5.8 mph /  9.3 km/h 53 % 0 in /  0.0 mm
11:25 62.4 °F /  16.9 °C 45.1 °F /  7.3 °C 30.2 in /  1020.9 hPa NW 9.2 mph /  14.8 km/h 9.2 mph /  14.8 km/h 53 % 0 in /  0.0 mm
11:30 63.1 °F /  17.3 °C 45.1 °F /  7.3 °C 30.2 in /  1020.9 hPa SW 4.6 mph /  7.4 km/h 4.6 mph /  7.4 km/h 52 % 0 in /  0.0 mm
11:35 63.5 °F /  17.5 °C 45.7 °F /  7.6 °C 30.2 in /  1020.9 hPa South 3.5 mph /  5.6 km/h 3.5 mph /  5.6 km/h 52 % 0 in /  0.0 mm
11:40 64.2 °F /  17.9 °C 46.2 °F /  7.9 °C 30.2 in /  1020.9 hPa NNE 3.1 mph /  5.0 km/h 3.1 mph /  5.0 km/h 52 % 0 in /  0.0 mm
11:45 64.8 °F /  18.2 °C 46.2 °F /  7.9 °C 30.2 in /  1020.9 hPa NW 5.8 mph /  9.3 km/h 5.8 mph /  9.3 km/h 51 % 0 in /  0.0 mm
11:50 64.8 °F /  18.2 °C 46.2 °F /  7.9 °C 30.2 in /  1020.9 hPa NNE 7.6 mph /  12.2 km/h 7.6 mph /  12.2 km/h 51 % 0 in /  0.0 mm
11:55 64.8 °F /  18.2 °C 46.2 °F /  7.9 °C 30.2 in /  1020.9 hPa ENE 4.6 mph /  7.4 km/h 4.6 mph /  7.4 km/h 51 % 0 in /  0.0 mm
12:00 65.8 °F /  18.8 °C 46.8 °F /  8.2 °C 30.2 in /  1020.9 hPa East 3.5 mph /  5.6 km/h 3.5 mph /  5.6 km/h 50 % 0 in /  0.0 mm
12:05 64.9 °F /  18.3 °C 45.9 °F /  7.7 °C 30.2 in /  1020.9 hPa South 5.4 mph /  8.7 km/h 5.4 mph /  8.7 km/h 50 % 0 in /  0.0 mm
12:10 64.9 °F /  18.3 °C 45.9 °F /  7.7 °C 30.2 in /  1020.9 hPa SSE 3.5 mph /  5.6 km/h 3.5 mph /  5.6 km/h 50 % 0 in /  0.0 mm
12:15 66 °F /  18.9 °C 46.8 °F /  8.2 °C 30.2 in /  1020.9 hPa SSW 6.4 mph /  10.3 km/h 6.4 mph /  10.3 km/h 50 % 0 in /  0.0 mm
12:20 66.2 °F /  19.0 °C 46.6 °F /  8.1 °C 30.2 in /  1020.9 hPa SSW 8.1 mph /  13.0 km/h 8.1 mph /  13.0 km/h 49 % 0 in /  0.0 mm
12:25 67.3 °F /  19.6 °C 47.5 °F /  8.6 °C 30.2 in /  1020.9 hPa SW 2.3 mph /  3.7 km/h 2.3 mph /  3.7 km/h 49 % 0 in /  0.0 mm
12:30 67.5 °F /  19.7 °C 47.1 °F /  8.4 °C 30.2 in /  1020.9 hPa SSE 8.1 mph /  13.0 km/h 8.1 mph /  13.0 km/h 48 % 0 in /  0.0 mm
12:35 66.7 °F /  19.3 °C 46.4 °F /  8.0 °C 30.2 in /  1020.9 hPa SW 4.6 mph /  7.4 km/h 4.6 mph /  7.4 km/h 48 % 0 in /  0.0 mm
12:40 68 °F /  20.0 °C 47.7 °F /  8.7 °C 30.2 in /  1020.9 hPa SSE 2.3 mph /  3.7 km/h 2.3 mph /  3.7 km/h 48 % 0 in /  0.0 mm
12:45 68.4 °F /  20.2 °C 47.8 °F /  8.8 °C 30.2 in /  1020.9 hPa East 2.6 mph /  4.2 km/h 2.6 mph /  4.2 km/h 48 % 0 in /  0.0 mm
12:50 68.7 °F /  20.4 °C 48.2 °F /  9.0 °C 30.2 in /  1020.9 hPa South 5.8 mph /  9.3 km/h 5.8 mph /  9.3 km/h 48 % 0 in /  0.0 mm
12:55 68.9 °F /  20.5 °C 47.8 °F /  8.8 °C 30.1 in /  1019.9 hPa South 4.9 mph /  7.9 km/h 4.9 mph /  7.9 km/h 47 % 0 in /  0.0 mm
13:00 69.4 °F /  20.8 °C 48.9 °F /  9.4 °C 30.1 in /  1019.9 hPa SW 3.8 mph /  6.1 km/h 3.8 mph /  6.1 km/h 48 % 0 in /  0.0 mm
13:05 68.2 °F /  20.1 °C 46.6 °F /  8.1 °C 30.1 in /  1019.9 hPa East 2.3 mph /  3.7 km/h 2.3 mph /  3.7 km/h 46 % 0 in /  0.0 mm
13:10 68.4 °F /  20.2 °C 47.3 °F /  8.5 °C 30.1 in /  1019.9 hPa SSE 5.8 mph /  9.3 km/h 5.8 mph /  9.3 km/h 47 % 0 in /  0.0 mm
13:15 68.9 °F /  20.5 °C 47.3 °F /  8.5 °C 30.1 in /  1019.9 hPa ESE 5.8 mph /  9.3 km/h 5.8 mph /  9.3 km/h 46 % 0 in /  0.0 mm
13:20 68.2 °F /  20.1 °C 46.6 °F /  8.1 °C 30.1 in /  1019.9 hPa West 8.5 mph /  13.7 km/h 8.5 mph /  13.7 km/h 46 % 0 in /  0.0 mm
13:25 68.9 °F /  20.5 °C 47.3 °F /  8.5 °C 30.1 in /  1019.9 hPa SSW 4.3 mph /  6.9 km/h 4.3 mph /  6.9 km/h 46 % 0 in /  0.0 mm
13:30 70.3 °F /  21.3 °C 48 °F /  8.9 °C 30.1 in /  1019.9 hPa SSW 3.5 mph /  5.6 km/h 3.5 mph /  5.6 km/h 45 % 0 in /  0.0 mm
13:35 69.8 °F /  21.0 °C 46.2 °F /  7.9 °C 30.1 in /  1019.9 hPa West 6.9 mph /  11.1 km/h 6.9 mph /  11.1 km/h 43 % 0 in /  0.0 mm
13:40 70.2 °F /  21.2 °C 46 °F /  7.8 °C 30.1 in /  1018.8 hPa North 4.6 mph /  7.4 km/h 4.6 mph /  7.4 km/h 42 % 0 in /  0.0 mm
13:45 71.2 °F /  21.8 °C 46.2 °F /  7.9 °C 30.1 in /  1018.8 hPa NE 4.6 mph /  7.4 km/h 4.6 mph /  7.4 km/h 41 % 0 in /  0.0 mm
13:50 71.1 °F /  21.7 °C 46.2 °F /  7.9 °C 30.1 in /  1018.8 hPa NW 4.9 mph /  7.9 km/h 4.9 mph /  7.9 km/h 41 % 0 in /  0.0 mm
13:55 71.1 °F /  21.7 °C 46.2 °F /  7.9 °C 30.1 in /  1017.8 hPa WSW 5.8 mph /  9.3 km/h 5.8 mph /  9.3 km/h 41 % 0 in /  0.0 mm
14:00 71.2 °F /  21.8 °C 45.7 °F /  7.6 °C 30.1 in /  1017.8 hPa WSW 4.6 mph /  7.4 km/h 4.6 mph /  7.4 km/h 40 % 0 in /  0.0 mm
14:05 71.6 °F /  22.0 °C 46 °F /  7.8 °C 30.1 in /  1017.8 hPa WSW 5.8 mph /  9.3 km/h 5.8 mph /  9.3 km/h 40 % 0 in /  0.0 mm
14:10 71.1 °F /  21.7 °C 44.2 °F /  6.8 °C 30.1 in /  1017.8 hPa WNW 5.8 mph /  9.3 km/h 5.8 mph /  9.3 km/h 38 % 0 in /  0.0 mm
14:15 71.2 °F /  21.8 °C 43.5 °F /  6.4 °C 30.1 in /  1017.8 hPa SW 8.1 mph /  13.0 km/h 8.1 mph /  13.0 km/h 37 % 0 in /  0.0 mm
14:20 71.6 °F /  22.0 °C 43.9 °F /  6.6 °C 30.1 in /  1017.8 hPa ESE 6.9 mph /  11.1 km/h 6.9 mph /  11.1 km/h 37 % 0 in /  0.0 mm
14:25 71.4 °F /  21.9 °C 43.2 °F /  6.2 °C 30.1 in /  1017.8 hPa NNE 5.8 mph /  9.3 km/h 5.8 mph /  9.3 km/h 36 % 0 in /  0.0 mm
14:30 72.1 °F /  22.3 °C 43.7 °F /  6.5 °C 30.1 in /  1017.8 hPa WSW 6.2 mph /  10.0 km/h 6.2 mph /  10.0 km/h 36 % 0 in /  0.0 mm
14:35 72 °F /  22.2 °C 43.5 °F /  6.4 °C 30.1 in /  1017.8 hPa SW 7.8 mph /  12.6 km/h 7.8 mph /  12.6 km/h 36 % 0 in /  0.0 mm
14:40 71.8 °F /  22.1 °C 42.6 °F /  5.9 °C 30.1 in /  1017.8 hPa West 4.6 mph /  7.4 km/h 4.6 mph /  7.4 km/h 35 % 0 in /  0.0 mm
14:45 72.3 °F /  22.4 °C 43.2 °F /  6.2 °C 30.1 in /  1017.8 hPa West 8.1 mph /  13.0 km/h 8.1 mph /  13.0 km/h 35 % 0 in /  0.0 mm
14:50 72.5 °F /  22.5 °C 42.4 °F /  5.8 °C 30.1 in /  1017.8 hPa East 5.8 mph /  9.3 km/h 5.8 mph /  9.3 km/h 34 % 0 in /  0.0 mm
14:55 73 °F /  22.8 °C 43.9 °F /  6.6 °C 30.1 in /  1017.8 hPa SSE 5.8 mph /  9.3 km/h 5.8 mph /  9.3 km/h 35 % 0 in /  0.0 mm
15:00 73 °F /  22.8 °C 43.9 °F /  6.6 °C 30.1 in /  1017.8 hPa ENE 4.6 mph /  7.4 km/h 4.6 mph /  7.4 km/h 35 % 0 in /  0.0 mm
15:05 72 °F /  22.2 °C 42.1 °F /  5.6 °C 30.1 in /  1017.8 hPa West 5.8 mph /  9.3 km/h 5.8 mph /  9.3 km/h 34 % 0 in /  0.0 mm
15:10 72.9 °F /  22.7 °C 42.8 °F /  6.0 °C 30.1 in /  1017.8 hPa West 8.1 mph /  13.0 km/h 8.1 mph /  13.0 km/h 34 % 0 in /  0.0 mm
15:15 73.2 °F /  22.9 °C 43.2 °F /  6.2 °C 30.1 in /  1017.8 hPa NNW 5.8 mph /  9.3 km/h 5.8 mph /  9.3 km/h 34 % 0 in /  0.0 mm
15:20 72.7 °F /  22.6 °C 42.6 °F /  5.9 °C 30.1 in /  1017.8 hPa WSW 5.8 mph /  9.3 km/h 5.8 mph /  9.3 km/h 34 % 0 in /  0.0 mm
15:25 72.5 °F /  22.5 °C 42.4 °F /  5.8 °C 30.1 in /  1017.8 hPa SW 4.6 mph /  7.4 km/h 4.6 mph /  7.4 km/h 34 % 0 in /  0.0 mm
15:30 72.1 °F /  22.3 °C 43 °F /  6.1 °C 30.1 in /  1017.8 hPa South 5.8 mph /  9.3 km/h 5.8 mph /  9.3 km/h 35 % 0 in /  0.0 mm
15:35 72 °F /  22.2 °C 43.5 °F /  6.4 °C 30.1 in /  1017.8 hPa South 5.8 mph /  9.3 km/h 5.8 mph /  9.3 km/h 36 % 0 in /  0.0 mm
15:40 71.6 °F /  22.0 °C 43.2 °F /  6.2 °C 30.1 in /  1017.8 hPa WSW 7.4 mph /  11.9 km/h 7.4 mph /  11.9 km/h 36 % 0 in /  0.0 mm
15:41 71.6 °F /  22.0 °C 43.2 °F /  6.2 °C 30.1 in /  1017.8 hPa SW 6.9 mph /  11.1 km/h 6.9 mph /  11.1 km/h 36 % 0 in /  0.0 mm
15:46 72.1 °F /  22.3 °C 43.7 °F /  6.5 °C 30.1 in /  1017.8 hPa SSW 4.5 mph /  7.2 km/h 4.5 mph /  7.2 km/h 36 % 0 in /  0.0 mm
15:51 72.1 °F /  22.3 °C 43.7 °F /  6.5 °C 30.1 in /  1017.8 hPa SW 9.2 mph /  14.8 km/h 9.2 mph /  14.8 km/h 36 % 0 in /  0.0 mm
15:56 72.1 °F /  22.3 °C 43 °F /  6.1 °C 30.1 in /  1017.8 hPa SSW 10.4 mph /  16.7 km/h 10.4 mph /  16.7 km/h 35 % 0 in /  0.0 mm
16:01 72.1 °F /  22.3 °C 43.7 °F /  6.5 °C 30.1 in /  1017.8 hPa WSW 5.8 mph /  9.3 km/h 5.9 mph /  9.5 km/h 36 % 0 in /  0.0 mm
16:06 72.5 °F /  22.5 °C 42.4 °F /  5.8 °C 30.1 in /  1017.8 hPa South 2.3 mph /  3.7 km/h 2.3 mph /  3.7 km/h 34 % 0 in /  0.0 mm
16:11 73.2 °F /  22.9 °C 44.8 °F /  7.1 °C 30.1 in /  1017.8 hPa WSW 7.8 mph /  12.6 km/h 7.8 mph /  12.6 km/h 36 % 0 in /  0.0 mm
16:16 72.5 °F /  22.5 °C 42.4 °F /  5.8 °C 30.1 in /  1017.8 hPa ESE 8.1 mph /  13.0 km/h 8.1 mph /  13.0 km/h 34 % 0 in /  0.0 mm
16:21 73 °F /  22.8 °C 44.4 °F /  6.9 °C 30.1 in /  1017.8 hPa SSW 9.2 mph /  14.8 km/h 9.2 mph /  14.8 km/h 36 % 0 in /  0.0 mm
16:26 73.2 °F /  22.9 °C 43.9 °F /  6.6 °C 30 in /  1016.8 hPa SW 6.9 mph /  11.1 km/h 6.9 mph /  11.1 km/h 35 % 0 in /  0.0 mm
16:31 73.8 °F /  23.2 °C 43.5 °F /  6.4 °C 30 in /  1016.8 hPa West 5.9 mph /  9.5 km/h 5.9 mph /  9.5 km/h 34 % 0 in /  0.0 mm
16:36 73.8 °F /  23.2 °C 44.4 °F /  6.9 °C 30 in /  1016.8 hPa SSW 8.1 mph /  13.0 km/h 8.1 mph /  13.0 km/h 35 % 0 in /  0.0 mm
16:41 73.8 °F /  23.2 °C 43.5 °F /  6.4 °C 30 in /  1016.8 hPa SW 5.8 mph /  9.3 km/h 5.8 mph /  9.3 km/h 34 % 0 in /  0.0 mm
16:46 73.8 °F /  23.2 °C 43.5 °F /  6.4 °C 30 in /  1016.8 hPa SW 9.2 mph /  14.8 km/h 9.2 mph /  14.8 km/h 34 % 0 in /  0.0 mm
16:51 73.6 °F /  23.1 °C 43.5 °F /  6.4 °C 30 in /  1016.8 hPa WSW 5.8 mph /  9.3 km/h 5.8 mph /  9.3 km/h 34 % 0 in /  0.0 mm
16:56 73.2 °F /  22.9 °C 44.8 °F /  7.1 °C 30 in /  1016.8 hPa SSE 5.8 mph /  9.3 km/h 5.8 mph /  9.3 km/h 36 % 0 in /  0.0 mm
17:01 72.7 °F /  22.6 °C 43.3 °F /  6.3 °C 30 in /  1016.8 hPa SW 6.9 mph /  11.1 km/h 6.9 mph /  11.1 km/h 35 % 0 in /  0.0 mm
17:06 72.3 °F /  22.4 °C 42.4 °F /  5.8 °C 30 in /  1016.8 hPa SSE 5.9 mph /  9.5 km/h 5.9 mph /  9.5 km/h 34 % 0 in /  0.0 mm
17:11 72.7 °F /  22.6 °C 43.3 °F /  6.3 °C 30 in /  1016.8 hPa SSW 3.6 mph /  5.8 km/h 3.6 mph /  5.8 km/h 35 % 0 in /  0.0 mm
17:16 72.5 °F /  22.5 °C 43.3 °F /  6.3 °C 30 in /  1016.8 hPa SSW 5.8 mph /  9.3 km/h 5.8 mph /  9.3 km/h 35 % 0 in /  0.0 mm
17:21 72.3 °F /  22.4 °C 43.2 °F /  6.2 °C 30 in /  1016.8 hPa SSW 8.1 mph /  13.0 km/h 8.1 mph /  13.0 km/h 35 % 0 in /  0.0 mm
17:26 72.7 °F /  22.6 °C 43.3 °F /  6.3 °C 30 in /  1016.8 hPa SW 9.8 mph /  15.8 km/h 9.8 mph /  15.8 km/h 35 % 0 in /  0.0 mm
17:31 73 °F /  22.8 °C 43.9 °F /  6.6 °C 30 in /  1016.8 hPa SW 8.1 mph /  13.0 km/h 8.1 mph /  13.0 km/h 35 % 0 in /  0.0 mm
17:36 73.2 °F /  22.9 °C 43.9 °F /  6.6 °C 30 in /  1016.8 hPa SSW 11.5 mph /  18.5 km/h 11.5 mph /  18.5 km/h 35 % 0 in /  0.0 mm
17:41 72.5 °F /  22.5 °C 43.3 °F /  6.3 °C 30.1 in /  1017.8 hPa SW 6.4 mph /  10.3 km/h 6.4 mph /  10.3 km/h 35 % 0 in /  0.0 mm
17:46 72.3 °F /  22.4 °C 42.4 °F /  5.8 °C 30.1 in /  1017.8 hPa SSW 6.9 mph /  11.1 km/h 6.9 mph /  11.1 km/h 34 % 0 in /  0.0 mm
17:51 72.9 °F /  22.7 °C 42.8 °F /  6.0 °C 30.1 in /  1017.8 hPa South 5.8 mph /  9.3 km/h 5.8 mph /  9.3 km/h 34 % 0 in /  0.0 mm
17:56 73.2 °F /  22.9 °C 43.9 °F /  6.6 °C 30 in /  1016.8 hPa WSW 4 mph /  6.4 km/h 4 mph /  6.4 km/h 35 % 0 in /  0.0 mm
18:01 73 °F /  22.8 °C 43 °F /  6.1 °C 30 in /  1016.8 hPa SW 8.1 mph /  13.0 km/h 8.1 mph /  13.0 km/h 34 % 0 in /  0.0 mm
18:02 72.7 °F /  22.6 °C 42.6 °F /  5.9 °C 30 in /  1016.8 hPa WSW 8.1 mph /  13.0 km/h 8.1 mph /  13.0 km/h 34 % 0 in /  0.0 mm
18:07 73 °F /  22.8 °C 43.9 °F /  6.6 °C 30 in /  1016.8 hPa SW 6.9 mph /  11.1 km/h 6.9 mph /  11.1 km/h 35 % 0 in /  0.0 mm
18:12 72.5 °F /  22.5 °C 42.4 °F /  5.8 °C 30 in /  1016.8 hPa WSW 6.9 mph /  11.1 km/h 6.9 mph /  11.1 km/h 34 % 0 in /  0.0 mm
18:17 72.5 °F /  22.5 °C 41.7 °F /  5.4 °C 30 in /  1016.8 hPa SW 4.6 mph /  7.4 km/h 4.6 mph /  7.4 km/h 33 % 0 in /  0.0 mm
18:22 72.7 °F /  22.6 °C 41.2 °F /  5.1 °C 30 in /  1016.8 hPa NNW 5.8 mph /  9.3 km/h 5.8 mph /  9.3 km/h 32 % 0 in /  0.0 mm
18:27 72.7 °F /  22.6 °C 40.3 °F /  4.6 °C 30 in /  1016.8 hPa WSW 4.6 mph /  7.4 km/h 4.6 mph /  7.4 km/h 31 % 0 in /  0.0 mm
18:32 72.7 °F /  22.6 °C 40.3 °F /  4.6 °C 30 in /  1016.8 hPa West 6.9 mph /  11.1 km/h 6.9 mph /  11.1 km/h 31 % 0 in /  0.0 mm
18:37 72.1 °F /  22.3 °C 39 °F /  3.9 °C 30 in /  1016.8 hPa West 4.6 mph /  7.4 km/h 4.6 mph /  7.4 km/h 30 % 0 in /  0.0 mm
18:42 72 °F /  22.2 °C 38.8 °F /  3.8 °C 30 in /  1016.8 hPa WNW 6.2 mph /  10.0 km/h 6.2 mph /  10.0 km/h 30 % 0 in /  0.0 mm
18:47 72.1 °F /  22.3 °C 39 °F /  3.9 °C 30 in /  1016.8 hPa SW 8.1 mph /  13.0 km/h 8.1 mph /  13.0 km/h 30 % 0 in /  0.0 mm
18:52 72.7 °F /  22.6 °C 39.4 °F /  4.1 °C 30 in /  1016.8 hPa WSW 4.6 mph /  7.4 km/h 4.6 mph /  7.4 km/h 30 % 0 in /  0.0 mm
18:57 72.5 °F /  22.5 °C 39.4 °F /  4.1 °C 30.1 in /  1017.8 hPa West 5.8 mph /  9.3 km/h 5.8 mph /  9.3 km/h 30 % 0 in /  0.0 mm
19:02 71.8 °F /  22.1 °C 38.7 °F /  3.7 °C 30.1 in /  1017.8 hPa West 4.6 mph /  7.4 km/h 4.6 mph /  7.4 km/h 30 % 0 in /  0.0 mm
19:07 71.6 °F /  22.0 °C 37.6 °F /  3.1 °C 30.1 in /  1017.8 hPa SW 8.1 mph /  13.0 km/h 8.1 mph /  13.0 km/h 29 % 0 in /  0.0 mm
19:12 71.4 °F /  21.9 °C 37.6 °F /  3.1 °C 30.1 in /  1017.8 hPa North 8.1 mph /  13.0 km/h 8.1 mph /  13.0 km/h 29 % 0 in /  0.0 mm
19:17 70.9 °F /  21.6 °C 37 °F /  2.8 °C 30.1 in /  1017.8 hPa West 9.2 mph /  14.8 km/h 9.2 mph /  14.8 km/h 29 % 0 in /  0.0 mm
19:22 70.5 °F /  21.4 °C 36.7 °F /  2.6 °C 30.1 in /  1017.8 hPa NNW 8.1 mph /  13.0 km/h 8.1 mph /  13.0 km/h 29 % 0 in /  0.0 mm
19:27 70.3 °F /  21.3 °C 36.7 °F /  2.6 °C 30.1 in /  1017.8 hPa WSW 5.8 mph /  9.3 km/h 5.8 mph /  9.3 km/h 29 % 0 in /  0.0 mm
19:30 58.3 °F /  14.6 °C 46.6 °F /  8.1 °C 30.1 in /  1019.9 hPa Calm   1 mph /  1.6 km/h 65 % 0 in /  0.0 mm
19:32 70.3 °F /  21.3 °C 36.7 °F /  2.6 °C 30.1 in /  1017.8 hPa SSW 6.4 mph /  10.3 km/h 6.4 mph /  10.3 km/h 29 % 0 in /  0.0 mm
19:37 70 °F /  21.1 °C 35.4 °F /  1.9 °C 30.1 in /  1017.8 hPa WSW 5.8 mph /  9.3 km/h 5.8 mph /  9.3 km/h 28 % 0 in /  0.0 mm
19:40 58.1 °F /  14.5 °C 46.8 °F /  8.2 °C 30.1 in /  1019.9 hPa ENE 2 mph /  3.2 km/h 3 mph /  4.8 km/h 66 % 0 in /  0.0 mm
19:42 70 °F /  21.1 °C 36.1 °F /  2.3 °C 30.1 in /  1017.8 hPa WSW 5.8 mph /  9.3 km/h 5.8 mph /  9.3 km/h 29 % 0 in /  0.0 mm
19:47 69.8 °F /  21.0 °C 36.1 °F /  2.3 °C 30.1 in /  1017.8 hPa WNW 9.7 mph /  15.6 km/h 9.7 mph /  15.6 km/h 29 % 0 in /  0.0 mm
19:50 58.1 °F /  14.5 °C 47.1 °F /  8.4 °C 30.1 in /  1019.9 hPa ENE 1 mph /  1.6 km/h 2 mph /  3.2 km/h 67 % 0 in /  0.0 mm
19:52 69.6 °F /  20.9 °C 36 °F /  2.2 °C 30.1 in /  1017.8 hPa West 5.8 mph /  9.3 km/h 5.8 mph /  9.3 km/h 29 % 0 in /  0.0 mm
19:57 69.3 °F /  20.7 °C 35.6 °F /  2.0 °C 30.1 in /  1017.8 hPa SW 3.5 mph /  5.6 km/h 3.5 mph /  5.6 km/h 29 % 0 in /  0.0 mm
20:00 57.7 °F /  14.3 °C 46.6 °F /  8.1 °C 30.2 in /  1020.9 hPa Calm   1 mph /  1.6 km/h 66 % 0 in /  0.0 mm
20:02 68.9 °F /  20.5 °C 35.2 °F /  1.8 °C 30.1 in /  1017.8 hPa WSW 6.9 mph /  11.1 km/h 6.9 mph /  11.1 km/h 29 % 0 in /  0.0 mm
20:07 68.7 °F /  20.4 °C 35.2 °F /  1.8 °C 30.1 in /  1017.8 hPa West 4.6 mph /  7.4 km/h 4.6 mph /  7.4 km/h 29 % 0 in /  0.0 mm
20:10 57.7 °F /  14.3 °C 47.1 °F /  8.4 °C 30.1 in /  1019.9 hPa NE 1 mph /  1.6 km/h 2 mph /  3.2 km/h 68 % 0 in /  0.0 mm
20:12 68.5 °F /  20.3 °C 35.1 °F /  1.7 °C 30.1 in /  1017.8 hPa WSW 2.3 mph /  3.7 km/h 2.3 mph /  3.7 km/h 29 % 0 in /  0.0 mm
20:17 68.2 °F /  20.1 °C 34.7 °F /  1.5 °C 30.1 in /  1017.8 hPa WSW 5.4 mph /  8.7 km/h 5.4 mph /  8.7 km/h 29 % 0 in /  0.0 mm
20:20 57.7 °F /  14.3 °C 47.1 °F /  8.4 °C 30.1 in /  1019.9 hPa NE 1 mph /  1.6 km/h 2 mph /  3.2 km/h 68 % 0 in /  0.0 mm
20:22 67.8 °F /  19.9 °C 35.2 °F /  1.8 °C 30.1 in /  1017.8 hPa West 3.5 mph /  5.6 km/h 3.5 mph /  5.6 km/h 30 % 0 in /  0.0 mm
20:27 67.6 °F /  19.8 °C 35.1 °F /  1.7 °C 30 in /  1016.8 hPa WSW 5.8 mph /  9.3 km/h 5.8 mph /  9.3 km/h 30 % 0 in /  0.0 mm
20:30 57.7 °F /  14.3 °C 47.7 °F /  8.7 °C 30.1 in /  1019.9 hPa ENE 2 mph /  3.2 km/h 3 mph /  4.8 km/h 69 % 0 in /  0.0 mm
20:32 67.5 °F /  19.7 °C 34.9 °F /  1.6 °C 30 in /  1016.8 hPa WSW 3.5 mph /  5.6 km/h 3.5 mph /  5.6 km/h 30 % 0 in /  0.0 mm
20:37 67.1 °F /  19.5 °C 34.5 °F /  1.4 °C 30 in /  1016.8 hPa WNW 2.3 mph /  3.7 km/h 2.3 mph /  3.7 km/h 30 % 0 in /  0.0 mm
20:40 57.4 °F /  14.1 °C 47.7 °F /  8.7 °C 30.2 in /  1020.9 hPa NE 1 mph /  1.6 km/h 3 mph /  4.8 km/h 70 % 0 in /  0.0 mm
20:42 66.9 °F /  19.4 °C 34.5 °F /  1.4 °C 30.1 in /  1018.8 hPa NNW 3.5 mph /  5.6 km/h 3.5 mph /  5.6 km/h 30 % 0 in /  0.0 mm
20:47 66.7 °F /  19.3 °C 34.3 °F /  1.3 °C 30.1 in /  1018.8 hPa WSW 3.5 mph /  5.6 km/h 3.5 mph /  5.6 km/h 30 % 0 in /  0.0 mm
20:50 57.4 °F /  14.1 °C 47.7 °F /  8.7 °C 30.2 in /  1020.9 hPa NE 3 mph /  4.8 km/h 3 mph /  4.8 km/h 70 % 0 in /  0.0 mm
20:52 66.4 °F /  19.1 °C 34 °F /  1.1 °C 30.1 in /  1018.8 hPa Calm     30 % 0 in /  0.0 mm
20:57 66.2 °F /  19.0 °C 33.8 °F /  1.0 °C 30.1 in /  1017.8 hPa WNW 2.3 mph /  3.7 km/h 2.3 mph /  3.7 km/h 30 % 0 in /  0.0 mm
21:00 57.6 °F /  14.2 °C 48.9 °F /  9.4 °C 30.2 in /  1020.9 hPa ENE 6 mph /  9.7 km/h 6 mph /  9.7 km/h 73 % 0 in /  0.0 mm
21:02 65.8 °F /  18.8 °C 33.4 °F /  0.8 °C 30.1 in /  1017.8 hPa Calm     30 % 0 in /  0.0 mm
21:07 65.3 °F /  18.5 °C 34 °F /  1.1 °C 30.1 in /  1017.8 hPa NNE 5.8 mph /  9.3 km/h 5.8 mph /  9.3 km/h 31 % 0 in /  0.0 mm
21:10 57.4 °F /  14.1 °C 49.3 °F /  9.6 °C 30.2 in /  1020.9 hPa ENE 6 mph /  9.7 km/h 7 mph /  11.3 km/h 74 % 0 in /  0.0 mm
21:12 64.8 °F /  18.2 °C 35.1 °F /  1.7 °C 30.1 in /  1017.8 hPa NE 5.8 mph /  9.3 km/h 5.8 mph /  9.3 km/h 33 % 0 in /  0.0 mm
21:17 64 °F /  17.8 °C 35.8 °F /  2.1 °C 30.1 in /  1017.8 hPa NE 5.8 mph /  9.3 km/h 5.8 mph /  9.3 km/h 35 % 0 in /  0.0 mm
21:20 57.2 °F /  14.0 °C 49.3 °F /  9.6 °C 30.2 in /  1020.9 hPa ENE 3 mph /  4.8 km/h 8 mph /  12.9 km/h 75 % 0 in /  0.0 mm
21:22 63.5 °F /  17.5 °C 37.4 °F /  3.0 °C 30.1 in /  1017.8 hPa NNE 4.3 mph /  6.9 km/h 4.3 mph /  6.9 km/h 38 % 0 in /  0.0 mm
21:27 63 °F /  17.2 °C 38.8 °F /  3.8 °C 30.1 in /  1018.8 hPa ENE 8.1 mph /  13.0 km/h 8.1 mph /  13.0 km/h 41 % 0 in /  0.0 mm
21:30 57.2 °F /  14.0 °C 48.9 °F /  9.4 °C 30.2 in /  1020.9 hPa East 5 mph /  8.0 km/h 8 mph /  12.9 km/h 74 % 0 in /  0.0 mm
21:32 62.4 °F /  16.9 °C 40.8 °F /  4.9 °C 30.1 in /  1018.8 hPa NNE 6.9 mph /  11.1 km/h 6.9 mph /  11.1 km/h 45 % 0 in /  0.0 mm
21:37 62.1 °F /  16.7 °C 41 °F /  5.0 °C 30.1 in /  1018.8 hPa ENE 4.6 mph /  7.4 km/h 4.6 mph /  7.4 km/h 46 % 0 in /  0.0 mm
21:40 57 °F /  13.9 °C 48.4 °F /  9.1 °C 30.2 in /  1021.9 hPa East 5 mph /  8.0 km/h 8 mph /  12.9 km/h 73 % 0 in /  0.0 mm
21:42 61.7 °F /  16.5 °C 42.3 °F /  5.7 °C 30.1 in /  1019.9 hPa ENE 6.9 mph /  11.1 km/h 6.9 mph /  11.1 km/h 49 % 0 in /  0.0 mm
21:47 61.3 °F /  16.3 °C 42.4 °F /  5.8 °C 30.1 in /  1019.9 hPa North 4.6 mph /  7.4 km/h 4.6 mph /  7.4 km/h 50 % 0 in /  0.0 mm
21:50 57 °F /  13.9 °C 48 °F /  8.9 °C 30.2 in /  1021.9 hPa East 3 mph /  4.8 km/h 5 mph /  8.0 km/h 72 % 0 in /  0.0 mm
21:52 61.2 °F /  16.2 °C 43 °F /  6.1 °C 30.1 in /  1019.9 hPa ENE 8.1 mph /  13.0 km/h 8.1 mph /  13.0 km/h 51 % 0 in /  0.0 mm
21:57 61 °F /  16.1 °C 43.2 °F /  6.2 °C 30.1 in /  1019.9 hPa NNE 4.6 mph /  7.4 km/h 4.6 mph /  7.4 km/h 52 % 0 in /  0.0 mm
22:00 56.8 °F /  13.8 °C 47.5 °F /  8.6 °C 30.2 in /  1021.9 hPa ENE 3 mph /  4.8 km/h 5 mph /  8.0 km/h 71 % 0 in /  0.0 mm
22:02 60.8 °F /  16.0 °C 43.2 °F /  6.2 °C 30.1 in /  1019.9 hPa ESE 5.9 mph /  9.5 km/h 5.9 mph /  9.5 km/h 52 % 0 in /  0.0 mm
22:07 60.8 °F /  16.0 °C 43.5 °F /  6.4 °C 30.1 in /  1019.9 hPa ENE 4.6 mph /  7.4 km/h 4.6 mph /  7.4 km/h 53 % 0 in /  0.0 mm
22:10 56.7 °F /  13.7 °C 47.7 °F /  8.7 °C 30.2 in /  1020.9 hPa ENE 3 mph /  4.8 km/h 6 mph /  9.7 km/h 72 % 0 in /  0.0 mm
22:12 60.6 °F /  15.9 °C 43.9 °F /  6.6 °C 30.1 in /  1019.9 hPa ENE 2.4 mph /  3.9 km/h 2.4 mph /  3.9 km/h 54 % 0 in /  0.0 mm
22:17 60.6 °F /  15.9 °C 43.9 °F /  6.6 °C 30.1 in /  1019.9 hPa NE 4.6 mph /  7.4 km/h 4.6 mph /  7.4 km/h 54 % 0 in /  0.0 mm
22:20 56.3 °F /  13.5 °C 47.5 °F /  8.6 °C 30.2 in /  1020.9 hPa ENE 2 mph /  3.2 km/h 5 mph /  8.0 km/h 72 % 0 in /  0.0 mm
22:22 60.4 °F /  15.8 °C 44.2 °F /  6.8 °C 30.1 in /  1019.9 hPa East 7.1 mph /  11.4 km/h 7.1 mph /  11.4 km/h 55 % 0 in /  0.0 mm
22:27 60.3 °F /  15.7 °C 44.4 °F /  6.9 °C 30.1 in /  1019.9 hPa NNE 5.8 mph /  9.3 km/h 5.8 mph /  9.3 km/h 56 % 0 in /  0.0 mm
22:32 60.1 °F /  15.6 °C 44.8 °F /  7.1 °C 30.1 in /  1019.9 hPa ENE 4.6 mph /  7.4 km/h 4.6 mph /  7.4 km/h 57 % 0 in /  0.0 mm
22:37 60.1 °F /  15.6 °C 44.8 °F /  7.1 °C 30.1 in /  1018.8 hPa East 4.6 mph /  7.4 km/h 4.6 mph /  7.4 km/h 57 % 0 in /  0.0 mm
22:40 55.8 °F /  13.2 °C 46.6 °F /  8.1 °C 30.2 in /  1021.9 hPa NE 3 mph /  4.8 km/h 3 mph /  4.8 km/h 71 % 0 in /  0.0 mm
22:42 60.1 °F /  15.6 °C 44.8 °F /  7.1 °C 30.1 in /  1018.8 hPa NNE 3.5 mph /  5.6 km/h 3.5 mph /  5.6 km/h 57 % 0 in /  0.0 mm
22:47 59.7 °F /  15.4 °C 45 °F /  7.2 °C 30.1 in /  1018.8 hPa ESE 3.3 mph /  5.3 km/h 3.3 mph /  5.3 km/h 58 % 0 in /  0.0 mm
22:50 55.6 °F /  13.1 °C 46.2 °F /  7.9 °C 30.2 in /  1021.9 hPa NE 2 mph /  3.2 km/h 3 mph /  4.8 km/h 71 % 0 in /  0.0 mm
22:52 59.7 °F /  15.4 °C 45.3 °F /  7.4 °C 30.1 in /  1019.9 hPa ENE 4.6 mph /  7.4 km/h 4.6 mph /  7.4 km/h 59 % 0 in /  0.0 mm
22:57 59.5 °F /  15.3 °C 45.1 °F /  7.3 °C 30.1 in /  1019.9 hPa ENE 4.6 mph /  7.4 km/h 4.6 mph /  7.4 km/h 59 % 0 in /  0.0 mm
23:00 55.6 °F /  13.1 °C 45.9 °F /  7.7 °C 30.2 in /  1021.9 hPa NNE 3 mph /  4.8 km/h 3 mph /  4.8 km/h 70 % 0 in /  0.0 mm
23:02 59.5 °F /  15.3 °C 45.1 °F /  7.3 °C 30.1 in /  1019.9 hPa East 3.5 mph /  5.6 km/h 3.5 mph /  5.6 km/h 59 % 0 in /  0.0 mm
23:07 59.4 °F /  15.2 °C 45 °F /  7.2 °C 30.1 in /  1018.8 hPa ENE 3.5 mph /  5.6 km/h 3.5 mph /  5.6 km/h 59 % 0 in /  0.0 mm
23:10 55 °F /  12.8 °C 45.3 °F /  7.4 °C 30.2 in /  1021.9 hPa NNE 1 mph /  1.6 km/h 3 mph /  4.8 km/h 70 % 0 in /  0.0 mm
23:12 59.2 °F /  15.1 °C 45.3 °F /  7.4 °C 30.1 in /  1018.8 hPa ENE 3.8 mph /  6.1 km/h 3.8 mph /  6.1 km/h 60 % 0 in /  0.0 mm
23:17 59.2 °F /  15.1 °C 45.3 °F /  7.4 °C 30.1 in /  1018.8 hPa ENE 4.6 mph /  7.4 km/h 4.6 mph /  7.4 km/h 60 % 0 in /  0.0 mm
23:20 55 °F /  12.8 °C 45.3 °F /  7.4 °C 30.2 in /  1021.9 hPa NE 3 mph /  4.8 km/h 3 mph /  4.8 km/h 70 % 0 in /  0.0 mm
23:22 59.2 °F /  15.1 °C 45.7 °F /  7.6 °C 30.1 in /  1019.9 hPa NNE 6.9 mph /  11.1 km/h 6.9 mph /  11.1 km/h 61 % 0 in /  0.0 mm
23:27 59 °F /  15.0 °C 45.7 °F /  7.6 °C 30.1 in /  1019.9 hPa NE 3.5 mph /  5.6 km/h 3.5 mph /  5.6 km/h 61 % 0 in /  0.0 mm
23:30 54.9 °F /  12.7 °C 45 °F /  7.2 °C 30.2 in /  1021.9 hPa North 1 mph /  1.6 km/h 2 mph /  3.2 km/h 69 % 0 in /  0.0 mm
23:32 59 °F /  15.0 °C 46 °F /  7.8 °C 30.1 in /  1019.9 hPa NNE 4.6 mph /  7.4 km/h 4.6 mph /  7.4 km/h 62 % 0 in /  0.0 mm
23:37 59 °F /  15.0 °C 46 °F /  7.8 °C 30.1 in /  1019.9 hPa ENE 3.5 mph /  5.6 km/h 3.5 mph /  5.6 km/h 62 % 0 in /  0.0 mm
23:40 55 °F /  12.8 °C 45.3 °F /  7.4 °C 30.2 in /  1021.9 hPa North 1 mph /  1.6 km/h 3 mph /  4.8 km/h 70 % 0 in /  0.0 mm
23:42 58.8 °F /  14.9 °C 45.9 °F /  7.7 °C 30.1 in /  1019.9 hPa NE 4.6 mph /  7.4 km/h 4.6 mph /  7.4 km/h 62 % 0 in /  0.0 mm
23:47 58.8 °F /  14.9 °C 45.9 °F /  7.7 °C 30.1 in /  1019.9 hPa NNE 4.6 mph /  7.4 km/h 4.6 mph /  7.4 km/h 62 % 0 in /  0.0 mm
23:50 55 °F /  12.8 °C 45.1 °F /  7.3 °C 30.2 in /  1021.9 hPa NNW 3 mph /  4.8 km/h 5 mph /  8.0 km/h 69 % 0 in /  0.0 mm
23:52 58.6 °F /  14.8 °C 46 °F /  7.8 °C 30.1 in /  1019.9 hPa ENE 3.5 mph /  5.6 km/h 3.5 mph /  5.6 km/h 63 % 0 in /  0.0 mm
23:57 58.6 °F /  14.8 °C 46 °F /  7.8 °C 30.1 in /  1019.9 hPa East 3.5 mph /  5.6 km/h 3.5 mph /  5.6 km/h 63 % 0 in /  0.0 mm
Meteo Sesrovires
Elogis d' Weather Underground - 3.75 mb

Guio original per  Jim McMurry - jmcmurry@mwt.net Adaptat per a la plantilla per  Wim van der Kuil - Leuven-Template.eu

Trobareu la nostra informacio del temps tambe a:

Weather Underground

AWEKAS